Time;durP1;ratioP1;P1;durP2;ratioP2;P2;SDS_P1;SDS_P2;PMS_P1;PMS_P2;Temp;Humidity;BMP_temperature;BMP_pressure;BME280_temperature;BME280_humidity;BME280_pressure;Samples;Min_cycle;Max_cycle;Signal;HPM_P1;HPM_P2
2022/05/24 00:01:18;;;;;;;3.70;1.67;;;15.20;99.90;;;;;;5018622;28;20488;-76
2022/05/24 00:03:44;;;;;;;6.57;1.30;;;15.20;99.90;;;;;;4974378;28;20037;-78
2022/05/24 00:06:10;;;;;;;2.30;1.05;;;15.20;99.90;;;;;;4997928;28;20041;-78
2022/05/24 00:08:37;;;;;;;2.45;1.40;;;15.20;99.90;;;;;;4998470;28;20053;-77
2022/05/24 00:11:03;;;;;;;2.78;1.52;;;15.10;99.90;;;;;;4997920;28;20492;-76
2022/05/24 00:13:28;;;;;;;2.67;1.40;;;15.10;99.90;;;;;;4998212;28;20421;-77
2022/05/24 00:15:54;;;;;;;2.70;1.50;;;15.10;99.90;;;;;;5013464;28;20179;-77
2022/05/24 00:18:26;;;;;;;2.42;1.27;;;15.20;99.90;;;;;;5017172;28;20065;-77
2022/05/24 00:20:55;;;;;;;3.08;1.70;;;15.20;99.90;;;;;;5021537;28;20034;-77
2022/05/24 00:23:23;;;;;;;3.22;1.50;;;15.10;99.90;;;;;;5023792;28;20025;-76
2022/05/24 00:25:55;;;;;;;3.88;1.42;;;15.20;99.90;;;;;;5014898;28;20034;-79
2022/05/24 00:28:24;;;;;;;4.03;1.60;;;15.20;99.90;;;;;;5013320;28;20105;-77
2022/05/24 00:30:50;;;;;;;3.63;1.70;;;15.20;99.90;;;;;;4985580;28;20021;-76
2022/05/24 00:33:17;;;;;;;3.38;1.42;;;15.20;99.90;;;;;;5023820;28;20017;-76
2022/05/24 00:35:44;;;;;;;2.28;1.35;;;15.20;99.90;;;;;;5008992;28;20058;-79
2022/05/24 00:38:12;;;;;;;3.90;1.75;;;15.10;99.90;;;;;;4997074;28;20030;-76
2022/05/24 00:40:44;;;;;;;4.50;1.40;;;15.10;99.90;;;;;;4997704;28;20037;-79
2022/05/24 00:43:23;;;;;;;1.83;1.40;;;15.10;99.90;;;;;;5014484;28;20052;-77
2022/05/24 00:45:53;;;;;;;2.35;1.27;;;15.10;99.90;;;;;;5017572;28;20398;-77
2022/05/24 00:48:26;;;;;;;2.67;1.50;;;15.00;99.90;;;;;;5011789;28;20061;-78
2022/05/24 00:50:52;;;;;;;4.38;1.60;;;15.00;99.90;;;;;;4998664;28;20520;-77
2022/05/24 00:53:38;;;;;;;3.20;1.50;;;15.00;99.90;;;;;;5016511;28;20060;-77
2022/05/24 00:56:07;;;;;;;;;;;15.00;99.90;;;;;;5000465;28;20059;-76
2022/05/24 00:58:48;;;;;;;2.17;1.27;;;14.90;99.90;;;;;;5013195;28;19951;-77
2022/05/24 01:01:25;;;;;;;2.00;1.58;;;14.90;99.90;;;;;;5005395;28;20036;-76
2022/05/24 01:03:51;;;;;;;6.32;2.10;;;14.90;99.90;;;;;;4998608;28;20065;-79
2022/05/24 01:06:17;;;;;;;2.58;1.58;;;14.90;99.90;;;;;;5014127;28;20026;-78
2022/05/24 01:08:43;;;;;;;4.72;1.90;;;14.90;99.90;;;;;;5026212;28;20092;-79
2022/05/24 01:11:13;;;;;;;3.90;1.40;;;14.90;99.90;;;;;;5020575;28;20549;-77
2022/05/24 01:13:39;;;;;;;2.50;1.45;;;14.80;99.90;;;;;;5029771;28;20092;-79
2022/05/24 01:16:06;;;;;;;5.80;1.70;;;14.80;99.90;;;;;;5018804;28;20064;-79
2022/05/24 01:18:32;;;;;;;2.40;1.60;;;14.80;99.90;;;;;;5014805;28;20030;-79
2022/05/24 01:21:04;;;;;;;4.97;1.77;;;14.80;99.90;;;;;;5017102;28;20395;-79
2022/05/24 01:23:41;;;;;;;2.45;1.30;;;14.80;99.90;;;;;;5015095;28;20037;-78
2022/05/24 01:26:54;;;;;;;5.15;1.60;;;14.70;99.90;;;;;;5015218;28;20026;-79
2022/05/24 01:29:23;;;;;;;2.55;1.55;;;14.70;99.90;;;;;;5014700;28;20103;-80
2022/05/24 01:37:20;;;;;;;2.55;1.50;;;14.60;99.90;;;;;;4990800;28;20484;-78
2022/05/24 01:39:52;;;;;;;2.30;1.50;;;14.60;99.90;;;;;;5015715;28;20073;-79
2022/05/24 01:42:19;;;;;;;2.17;1.42;;;14.60;99.90;;;;;;5000551;28;20034;-79
2022/05/24 01:44:53;;;;;;;2.83;1.70;;;14.60;99.90;;;;;;5024384;28;20120;-78
2022/05/24 01:47:22;;;;;;;3.40;1.90;;;14.60;99.90;;;;;;4992787;28;20508;-77
2022/05/24 01:49:53;;;;;;;2.70;1.60;;;14.60;99.90;;;;;;5014927;28;20026;-79
2022/05/24 01:52:28;;;;;;;3.90;1.80;;;14.60;99.90;;;;;;4998562;28;20479;-79
2022/05/24 01:54:55;;;;;;;;;;;14.60;99.90;;;;;;5000567;28;20466;-79
2022/05/24 01:57:30;;;;;;;3.47;1.70;;;14.60;99.90;;;;;;4984157;28;20024;-78
2022/05/24 01:59:56;;;;;;;2.90;1.65;;;14.70;99.90;;;;;;4989029;28;20452;-79
2022/05/24 02:02:22;;;;;;;2.50;1.33;;;14.70;99.90;;;;;;5002160;28;20038;-79
2022/05/24 02:04:48;;;;;;;4.38;1.92;;;14.70;99.90;;;;;;4999091;28;20037;-77
2022/05/24 02:07:19;;;;;;;4.90;1.60;;;14.80;99.90;;;;;;5023473;28;20132;-79
2022/05/24 02:09:48;;;;;;;2.42;1.60;;;14.80;99.90;;;;;;5015134;28;20042;-79
2022/05/24 02:12:23;;;;;;;3.03;1.58;;;14.80;99.90;;;;;;4990679;28;20092;-77
2022/05/24 02:14:54;;;;;;;;;;;14.80;99.90;;;;;;4994682;28;20404;-78
2022/05/24 02:17:24;;;;;;;2.33;1.38;;;14.90;99.90;;;;;;4983447;28;19952;-77
2022/05/24 02:19:56;;;;;;;1.70;1.52;;;14.90;99.90;;;;;;4977914;28;20033;-78
2022/05/24 02:22:25;;;;;;;2.30;1.58;;;14.90;99.90;;;;;;5016650;28;20044;-80
2022/05/24 02:24:57;;;;;;;1.98;1.40;;;14.90;99.90;;;;;;4990778;28;20091;-78
2022/05/24 02:27:23;;;;;;;5.05;2.08;;;14.90;99.90;;;;;;5012042;28;20125;-77
2022/05/24 02:29:49;;;;;;;2.20;1.60;;;15.00;99.90;;;;;;5013924;28;20034;-78
2022/05/24 02:32:15;;;;;;;9.73;2.00;;;15.00;99.90;;;;;;4995333;28;20030;-79
2022/05/24 02:34:40;;;;;;;2.70;1.70;;;15.00;99.90;;;;;;4975192;28;20034;-79
2022/05/24 02:37:06;;;;;;;2.08;1.33;;;15.00;99.90;;;;;;4993153;28;20033;-77
2022/05/24 02:41:28;;;;;;;2.95;1.80;;;15.00;99.90;;;;;;4998017;28;20416;-80
2022/05/24 02:42:17;;;;;;;3.65;1.80;;;14.90;99.90;;;;;;5007753;28;20086;-77
2022/05/24 02:44:43;;;;;;;2.95;1.50;;;14.90;99.90;;;;;;4977148;28;20232;-78
2022/05/24 02:47:09;;;;;;;1.63;1.52;;;14.90;99.90;;;;;;4990582;28;20034;-78
2022/05/24 02:49:34;;;;;;;2.38;1.48;;;14.90;99.90;;;;;;5011403;28;20041;-77
2022/05/24 02:52:00;;;;;;;4.15;1.83;;;14.80;99.90;;;;;;5022591;28;20037;-79
2022/05/24 02:54:25;;;;;;;2.35;1.77;;;14.80;99.90;;;;;;5012484;28;20049;-80
2022/05/24 02:56:51;;;;;;;4.43;2.03;;;14.80;99.90;;;;;;5010163;28;20160;-78
2022/05/24 02:59:17;;;;;;;2.20;1.55;;;14.70;99.90;;;;;;4994638;28;20042;-77
2022/05/24 03:01:42;;;;;;;2.25;1.60;;;14.70;99.90;;;;;;4991107;28;20054;-78
2022/05/24 03:04:08;;;;;;;1.88;1.48;;;14.70;99.90;;;;;;4953940;28;20040;-77
2022/05/24 03:09:33;;;;;;;4.10;2.30;;;14.70;99.90;;;;;;5016532;28;20399;-78
2022/05/24 03:09:35;;;;;;;2.53;1.63;;;14.70;99.90;;;;;;5020479;28;20026;-77
2022/05/24 03:14:50;;;;;;;3.25;1.50;;;14.70;99.90;;;;;;5013666;28;20033;-80
2022/05/24 03:17:16;;;;;;;2.50;2.25;;;14.70;99.90;;;;;;4964333;28;20038;-77
2022/05/24 03:19:44;;;;;;;4.50;2.28;;;14.70;99.90;;;;;;4967084;28;20673;-77
2022/05/24 03:22:10;;;;;;;2.50;1.60;;;14.70;99.90;;;;;;4987272;28;20522;-77
2022/05/24 03:24:36;;;;;;;3.65;1.92;;;14.80;99.90;;;;;;5000531;28;20038;-79
2022/05/24 03:27:11;;;;;;;2.95;2.00;;;14.80;99.90;;;;;;4982389;28;20034;-77
2022/05/24 03:29:38;;;;;;;2.58;1.92;;;14.90;99.90;;;;;;5006133;28;20026;-77
2022/05/24 03:32:06;;;;;;;3.95;2.80;;;14.90;99.90;;;;;;5018672;28;20396;-77
2022/05/24 03:34:31;;;;;;;1.98;1.75;;;14.90;99.90;;;;;;4999413;28;20036;-78
2022/05/24 03:36:57;;;;;;;3.70;1.55;;;15.00;99.90;;;;;;5012780;28;20037;-77
2022/05/24 03:39:22;;;;;;;4.50;2.00;;;15.00;99.90;;;;;;4993459;28;20030;-78
2022/05/24 03:41:48;;;;;;;1.77;1.65;;;15.00;99.90;;;;;;5021196;28;20037;-78
2022/05/24 03:44:14;;;;;;;3.47;1.88;;;14.90;99.90;;;;;;4995208;28;20041;-80
2022/05/24 03:46:40;;;;;;;3.22;1.40;;;15.00;99.90;;;;;;4991602;28;20031;-77
2022/05/24 03:49:06;;;;;;;4.93;1.88;;;15.00;99.90;;;;;;5011273;28;20038;-77
2022/05/24 03:51:31;;;;;;;2.35;1.63;;;15.00;99.90;;;;;;4996678;28;20034;-77
2022/05/24 03:53:57;;;;;;;3.05;1.60;;;15.00;99.90;;;;;;4999266;28;20036;-79
2022/05/24 03:56:26;;;;;;;2.78;1.63;;;15.00;99.90;;;;;;4999720;28;20037;-77
2022/05/24 03:58:51;;;;;;;3.35;1.95;;;15.00;99.90;;;;;;5023507;28;20034;-77
2022/05/24 04:01:17;;;;;;;2.63;1.70;;;15.00;99.90;;;;;;5010841;28;20053;-78
2022/05/24 04:03:43;;;;;;;3.75;1.60;;;15.00;99.90;;;;;;5013315;28;20392;-79
2022/05/24 04:06:10;;;;;;;1.92;1.70;;;15.00;99.90;;;;;;5000681;28;20064;-78
2022/05/24 04:08:35;;;;;;;5.00;1.85;;;15.00;99.90;;;;;;5002436;28;20042;-77
2022/05/24 04:11:04;;;;;;;3.30;2.00;;;15.10;99.90;;;;;;5011998;28;20022;-78
2022/05/24 04:13:30;;;;;;;3.83;2.35;;;15.00;99.90;;;;;;4998614;28;20153;-79
2022/05/24 04:15:56;;;;;;;2.25;1.90;;;15.00;99.90;;;;;;5002418;28;20044;-78
2022/05/24 04:18:24;;;;;;;3.15;1.90;;;15.00;99.90;;;;;;5017652;28;20579;-79
2022/05/24 04:20:53;;;;;;;1.75;1.65;;;15.00;99.90;;;;;;4996644;28;20050;-79
2022/05/24 04:23:22;;;;;;;2.00;1.70;;;15.00;99.90;;;;;;4994572;28;20038;-79
2022/05/24 04:25:48;;;;;;;1.98;1.75;;;15.00;99.90;;;;;;4987894;28;20042;-77
2022/05/24 04:28:18;;;;;;;2.05;1.67;;;15.00;99.90;;;;;;5019600;28;20036;-77
2022/05/24 04:30:48;;;;;;;2.35;1.75;;;15.10;99.90;;;;;;5003164;28;20125;-78
2022/05/24 04:33:15;;;;;;;2.15;1.95;;;15.10;99.90;;;;;;4988054;28;20026;-78
2022/05/24 04:35:42;;;;;;;4.70;2.22;;;15.20;99.90;;;;;;5002568;28;20062;-76
2022/05/24 04:38:08;;;;;;;3.88;2.78;;;15.20;99.90;;;;;;5014174;28;20488;-76
2022/05/24 04:43:18;;;;;;;4.57;2.13;;;15.20;99.90;;;;;;5006170;28;20030;-76
2022/05/24 04:45:44;;;;;;;4.90;1.52;;;15.20;99.90;;;;;;5013719;28;20463;-78
2022/05/24 04:48:09;;;;;;;2.30;1.85;;;15.30;99.90;;;;;;5012355;28;20496;-76
2022/05/24 04:50:38;;;;;;;2.10;1.88;;;15.30;99.90;;;;;;4994103;28;20030;-76
2022/05/24 04:53:06;;;;;;;2.22;2.00;;;15.30;99.90;;;;;;5014923;28;20036;-78
2022/05/24 04:55:32;;;;;;;3.75;2.00;;;15.40;99.90;;;;;;4997228;28;20096;-77
2022/05/24 04:57:58;;;;;;;2.88;2.00;;;15.50;99.90;;;;;;4995759;28;20484;-77
2022/05/24 05:00:24;;;;;;;2.50;1.83;;;15.50;99.90;;;;;;4993420;28;20121;-77
2022/05/24 05:02:51;;;;;;;3.80;1.70;;;15.50;99.90;;;;;;5020568;28;20037;-77
2022/05/24 05:05:17;;;;;;;1.95;1.80;;;15.50;99.90;;;;;;5011596;28;20467;-78
2022/05/24 05:07:43;;;;;;;2.60;2.28;;;15.50;99.90;;;;;;5010882;28;20037;-78
2022/05/24 05:10:11;;;;;;;2.83;1.65;;;15.50;99.90;;;;;;5012251;28;20025;-77
2022/05/24 05:12:37;;;;;;;6.10;2.83;;;15.40;99.90;;;;;;5016571;28;20490;-79
2022/05/24 05:15:05;;;;;;;4.50;2.30;;;15.50;99.90;;;;;;4979206;28;20041;-78
2022/05/24 05:17:31;;;;;;;4.00;2.30;;;15.50;99.90;;;;;;5011835;28;20037;-79
2022/05/24 05:19:59;;;;;;;3.70;2.47;;;15.50;99.90;;;;;;4976283;28;20043;-77
2022/05/24 05:22:27;;;;;;;4.18;2.65;;;15.50;99.90;;;;;;4993543;28;20089;-76
2022/05/24 05:24:53;;;;;;;8.95;2.55;;;15.60;99.90;;;;;;5003090;28;20038;-77
2022/05/24 05:27:20;;;;;;;3.95;2.97;;;15.60;99.90;;;;;;5008787;28;20041;-76
2022/05/24 05:32:30;;;;;;;7.53;2.33;;;15.70;99.90;;;;;;4994999;28;20033;-76
2022/05/24 05:34:57;;;;;;;4.72;2.90;;;15.80;99.90;;;;;;4995961;28;20451;-75
2022/05/24 05:37:25;;;;;;;4.78;3.15;;;15.90;99.90;;;;;;5015976;28;20038;-79
2022/05/24 05:39:55;;;;;;;3.33;3.03;;;15.90;99.90;;;;;;5013387;28;20026;-78
2022/05/24 05:42:21;;;;;;;4.05;3.60;;;15.90;99.90;;;;;;4997241;28;20073;-77
2022/05/24 05:44:50;;;;;;;4.93;3.28;;;16.00;99.90;;;;;;4985192;28;20101;-77
2022/05/24 05:47:17;;;;;;;5.00;4.50;;;16.00;99.90;;;;;;4958905;28;20069;-77
2022/05/24 05:49:42;;;;;;;5.75;4.00;;;16.00;99.90;;;;;;5004511;28;20058;-77
2022/05/24 05:52:11;;;;;;;4.00;3.60;;;16.10;99.90;;;;;;4991667;28;20105;-78
2022/05/24 05:54:37;;;;;;;4.00;3.58;;;16.10;99.90;;;;;;4999383;28;20130;-78
2022/05/24 05:57:06;;;;;;;3.95;3.55;;;16.30;99.90;;;;;;5008607;28;20088;-77
2022/05/24 05:59:32;;;;;;;6.18;3.97;;;16.50;99.90;;;;;;5012210;28;20042;-78
2022/05/24 06:01:58;;;;;;;7.65;3.25;;;16.60;99.90;;;;;;4996294;28;20040;-77
2022/05/24 06:04:26;;;;;;;3.00;2.72;;;16.70;99.90;;;;;;4998960;28;20129;-78
2022/05/24 06:06:53;;;;;;;2.80;2.60;;;16.70;99.90;;;;;;5001995;28;20026;-77
2022/05/24 06:09:19;;;;;;;3.40;3.10;;;16.70;99.90;;;;;;4972320;28;20069;-77
2022/05/24 06:11:46;;;;;;;4.03;3.28;;;16.60;99.90;;;;;;4988295;28;20492;-77
2022/05/24 06:14:12;;;;;;;3.15;2.50;;;16.70;99.90;;;;;;4989861;28;20043;-77
2022/05/24 06:16:37;;;;;;;5.38;2.83;;;16.70;99.90;;;;;;5019687;28;20124;-78
2022/05/24 06:19:05;;;;;;;3.13;2.83;;;16.70;99.90;;;;;;5000641;28;20123;-77
2022/05/24 06:21:33;;;;;;;2.85;2.55;;;16.80;99.90;;;;;;5013704;28;20176;-78
2022/05/24 06:24:00;;;;;;;2.80;2.60;;;16.90;99.90;;;;;;5013537;28;20512;-77
2022/05/24 06:26:27;;;;;;;3.80;3.47;;;17.10;99.90;;;;;;4985509;28;20128;-78
2022/05/24 06:28:53;;;;;;;7.88;3.78;;;17.20;99.90;;;;;;4996155;28;20040;-77
2022/05/24 06:31:18;;;;;;;2.63;2.42;;;17.20;99.90;;;;;;4996797;28;20033;-77
2022/05/24 06:33:44;;;;;;;2.60;2.40;;;17.20;99.90;;;;;;4998988;28;20399;-78
2022/05/24 06:36:10;;;;;;;2.47;2.28;;;17.20;99.90;;;;;;4998279;28;20468;-77
2022/05/24 06:38:37;;;;;;;3.50;2.53;;;17.20;99.90;;;;;;4994333;28;20077;-77
2022/05/24 06:41:04;;;;;;;2.90;2.33;;;17.20;99.90;;;;;;5013215;28;20041;-77
2022/05/24 06:43:30;;;;;;;4.40;2.38;;;17.20;99.90;;;;;;5004520;28;20033;-78
2022/05/24 06:45:56;;;;;;;4.72;2.20;;;17.20;99.90;;;;;;4996937;28;20030;-77
2022/05/24 06:48:23;;;;;;;2.10;1.90;;;17.20;99.90;;;;;;5010824;28;20053;-77
2022/05/24 06:50:48;;;;;;;2.35;2.15;;;17.10;99.90;;;;;;4998795;28;20403;-78
2022/05/24 06:53:14;;;;;;;3.72;2.35;;;17.10;99.90;;;;;;5015704;28;20030;-78
2022/05/24 06:55:40;;;;;;;1.85;1.73;;;17.00;99.90;;;;;;5001092;28;20022;-78
2022/05/24 06:58:05;;;;;;;3.78;2.28;;;16.80;99.90;;;;;;4982796;28;20040;-78
2022/05/24 07:03:16;;;;;;;2.60;2.40;;;16.90;99.90;;;;;;5015491;28;20480;-78
2022/05/24 07:05:44;;;;;;;2.03;1.90;;;16.90;99.90;;;;;;5010252;28;20030;-76
2022/05/24 07:08:13;;;;;;;3.60;2.25;;;17.00;99.90;;;;;;5000641;28;20507;-77
2022/05/24 07:10:39;;;;;;;2.85;2.60;;;17.20;99.90;;;;;;4997200;28;20033;-77
2022/05/24 07:13:08;;;;;;;2.58;2.38;;;17.30;99.90;;;;;;4998222;28;20095;-78
2022/05/24 07:15:34;;;;;;;2.08;1.95;;;17.50;99.90;;;;;;5001197;28;20414;-78
2022/05/24 07:18:01;;;;;;;3.20;2.35;;;17.60;99.90;;;;;;4999688;28;20116;-77
2022/05/24 07:20:28;;;;;;;4.00;1.88;;;17.70;99.90;;;;;;5013323;28;20046;-78
2022/05/24 07:22:54;;;;;;;2.10;1.83;;;17.80;99.90;;;;;;4980238;28;20038;-78
2022/05/24 07:25:21;;;;;;;3.28;2.10;;;17.80;99.90;;;;;;4986723;28;20085;-78
2022/05/24 07:27:47;;;;;;;2.05;1.95;;;17.80;99.90;;;;;;5016947;28;20124;-80
2022/05/24 07:30:13;;;;;;;1.77;1.67;;;17.80;99.90;;;;;;5019182;28;20133;-79
2022/05/24 07:32:39;;;;;;;1.90;1.80;;;18.00;99.90;;;;;;5004220;28;20037;-79
2022/05/24 07:35:05;;;;;;;2.42;2.22;;;18.10;99.90;;;;;;4973941;28;20427;-78
2022/05/24 07:37:31;;;;;;;2.00;1.90;;;18.20;99.90;;;;;;4968941;28;20035;-78
2022/05/24 07:45:49;;;;;;;2.78;1.80;;;19.40;99.90;;;;;;5002292;28;20107;-79
2022/05/24 07:48:20;;;;;;;1.85;1.70;;;19.50;99.90;;;;;;4996499;28;20434;-78
2022/05/24 07:50:46;;;;;;;2.72;2.15;;;19.40;99.90;;;;;;5011391;28;20026;-78
2022/05/24 07:53:12;;;;;;;3.70;1.88;;;19.10;99.90;;;;;;5011179;28;20025;-78
2022/05/24 07:55:38;;;;;;;1.98;1.73;;;19.00;99.90;;;;;;5011815;28;20030;-78
2022/05/24 07:58:04;;;;;;;2.47;2.28;;;18.90;99.90;;;;;;4999031;28;20538;-80
2022/05/24 08:00:30;;;;;;;3.63;1.80;;;18.80;99.90;;;;;;4995100;28;20022;-77
2022/05/24 08:02:56;;;;;;;2.92;1.52;;;18.70;99.90;;;;;;4989575;28;20121;-80
2022/05/24 08:05:23;;;;;;;1.52;1.42;;;18.60;99.90;;;;;;4997255;28;20061;-81
2022/05/24 08:07:49;;;;;;;1.52;1.40;;;18.50;99.90;;;;;;5016769;28;20087;-76
2022/05/24 08:10:16;;;;;;;1.65;1.55;;;18.50;99.90;;;;;;4993629;28;20672;-81
2022/05/24 08:12:42;;;;;;;2.17;1.40;;;18.50;99.90;;;;;;5022544;28;20510;-79
2022/05/24 08:15:10;;;;;;;1.30;1.20;;;18.50;99.90;;;;;;4998441;28;20021;-78
2022/05/24 08:17:36;;;;;;;1.40;1.30;;;18.40;99.90;;;;;;5014861;28;20344;-80
2022/05/24 08:20:03;;;;;;;3.22;1.38;;;18.30;99.90;;;;;;5015741;28;20021;-81
2022/05/24 08:22:29;;;;;;;1.35;1.25;;;18.30;99.90;;;;;;5003908;28;20037;-77
2022/05/24 08:24:55;;;;;;;1.30;1.20;;;18.30;99.90;;;;;;5001144;28;20030;-78
2022/05/24 08:27:21;;;;;;;1.38;1.20;;;18.40;99.90;;;;;;5000041;28;20029;-82
2022/05/24 08:29:46;;;;;;;1.13;1.02;;;18.50;99.90;;;;;;5017944;28;20038;-81
2022/05/24 08:32:12;;;;;;;2.67;1.60;;;18.60;99.90;;;;;;4989365;28;20042;-81
2022/05/24 08:34:38;;;;;;;1.10;1.00;;;18.70;99.90;;;;;;4987457;28;20037;-78
2022/05/24 08:37:05;;;;;;;1.30;1.20;;;18.70;99.90;;;;;;5011012;28;20582;-81
2022/05/24 08:39:31;;;;;;;1.10;1.00;;;18.70;99.90;;;;;;5012208;28;20034;-80
2022/05/24 08:42:05;;;;;;;5.43;1.17;;;18.80;99.90;;;;;;4998001;28;20116;-76
2022/05/24 08:50:20;;;;;;;2.40;0.93;;;18.90;99.90;;;;;;4991455;28;20026;-77
2022/05/24 08:53:28;;;;;;;1.55;1.08;;;18.90;99.90;;;;;;5011544;28;20723;-81
2022/05/24 08:55:53;;;;;;;1.35;1.10;;;18.80;99.90;;;;;;4966556;28;20244;-80
2022/05/24 08:58:33;;;;;;;2.03;1.25;;;18.80;99.90;;;;;;4977498;28;20034;-78
2022/05/24 09:00:59;;;;;;;1.30;1.00;;;18.70;99.90;;;;;;4976003;28;20550;-78
2022/05/24 09:03:26;;;;;;;1.30;1.20;;;18.70;99.90;;;;;;5015005;28;20045;-81
2022/05/24 09:05:59;;;;;;;1.33;1.00;;;18.70;99.90;;;;;;5011455;28;20034;-82
2022/05/24 09:08:36;;;;;;;1.40;1.08;;;18.60;99.90;;;;;;5016267;28;20029;-78
2022/05/24 09:11:12;;;;;;;1.67;1.02;;;18.60;99.90;;;;;;5016511;28;20462;-78
2022/05/24 09:14:08;;;;;;;1.38;1.10;;;18.70;99.90;;;;;;5008459;28;20040;-81
2022/05/24 09:17:13;;;;;;;4.35;1.13;;;18.70;99.90;;;;;;5009780;28;20034;-80
2022/05/24 09:19:42;;;;;;;3.22;0.82;;;18.70;99.90;;;;;;4964974;28;20030;-80
2022/05/24 09:22:10;;;;;;;2.50;1.00;;;18.70;99.90;;;;;;5009070;28;20030;-81
2022/05/24 09:24:44;;;;;;;2.03;1.27;;;18.70;99.90;;;;;;4990196;28;20040;-79
2022/05/24 09:27:23;;;;;;;3.63;0.88;;;18.60;99.90;;;;;;4997781;28;20041;-80
2022/05/24 09:30:23;;;;;;;1.48;1.00;;;18.60;99.90;;;;;;4958590;28;20022;-82
2022/05/24 09:32:49;;;;;;;0.98;0.98;;;18.70;99.90;;;;;;4998745;28;20061;-75
2022/05/24 09:35:18;;;;;;;4.88;1.45;;;18.60;99.90;;;;;;5010987;28;20061;-80
2022/05/24 09:38:04;;;;;;;1.13;1.10;;;18.50;99.90;;;;;;5007580;28;20034;-79
2022/05/24 09:40:51;;;;;;;2.17;0.85;;;18.50;99.90;;;;;;4994594;28;20688;-79
2022/05/24 09:43:33;;;;;;;1.45;0.70;;;18.50;99.90;;;;;;5005915;28;20113;-79
2022/05/24 09:46:17;;;;;;;0.70;0.70;;;18.40;99.90;;;;;;4997628;28;20034;-78
2022/05/24 09:49:17;;;;;;;1.77;1.10;;;18.50;99.90;;;;;;5013544;28;20040;-81
2022/05/24 09:51:43;;;;;;;2.33;0.80;;;18.60;99.90;;;;;;5013586;28;20104;-78
2022/05/24 09:54:16;;;;;;;1.52;0.75;;;18.60;99.90;;;;;;5007991;28;20524;-80
2022/05/24 09:57:03;;;;;;;1.73;0.70;;;18.60;99.90;;;;;;5016998;28;20113;-79
2022/05/24 09:59:29;;;;;;;2.13;0.80;;;18.50;99.90;;;;;;5010395;28;20049;-79
2022/05/24 10:01:55;;;;;;;0.63;0.63;;;18.50;99.90;;;;;;5004558;28;20108;-80
2022/05/24 10:04:29;;;;;;;3.50;1.02;;;18.40;99.90;;;;;;4987843;28;20403;-79
2022/05/24 10:06:59;;;;;;;1.25;0.80;;;18.30;99.90;;;;;;4992619;28;20025;-78
2022/05/24 10:09:47;;;;;;;0.75;0.75;;;18.20;99.90;;;;;;4977290;28;20038;-79
2022/05/24 10:12:48;;;;;;;4.00;0.90;;;18.10;99.90;;;;;;4982257;28;20018;-77
2022/05/24 10:15:20;;;;;;;1.17;1.00;;;18.00;99.90;;;;;;5005269;28;20022;-79
2022/05/24 10:18:23;;;;;;;2.75;0.90;;;17.90;99.90;;;;;;5008281;28;20030;-80
2022/05/24 10:21:14;;;;;;;1.83;1.25;;;17.70;99.90;;;;;;4990756;28;20041;-78
2022/05/24 10:23:48;;;;;;;2.13;0.90;;;17.50;99.90;;;;;;5008328;28;20519;-78
2022/05/24 10:26:21;;;;;;;1.10;0.80;;;17.10;99.90;;;;;;4989424;28;20036;-79
2022/05/24 10:28:56;;;;;;;0.68;0.68;;;16.80;99.90;;;;;;4998864;28;20029;-78
2022/05/24 10:31:57;;;;;;;1.10;1.00;;;16.60;99.90;;;;;;4989411;28;20056;-78
2022/05/24 10:40:38;;;;;;;0.90;0.90;;;16.20;99.90;;;;;;5011604;28;20038;-77
2022/05/24 10:43:42;;;;;;;0.88;0.88;;;16.20;99.90;;;;;;5005075;28;20414;-76
2022/05/24 10:46:16;;;;;;;2.35;0.80;;;16.20;99.90;;;;;;4893394;29;20028;-79
2022/05/24 10:48:44;;;;;;;0.80;0.80;;;16.20;99.90;;;;;;4920414;29;20044;-80
2022/05/24 10:51:39;;;;;;;0.88;0.88;;;16.30;99.90;;;;;;4968521;28;20037;-80
2022/05/24 10:54:29;;;;;;;1.05;0.75;;;16.40;99.90;;;;;;4931590;28;20142;-77
2022/05/24 10:57:02;;;;;;;6.35;1.10;;;16.50;99.90;;;;;;5002915;28;20038;-80
2022/05/24 11:00:05;;;;;;;0.85;0.85;;;16.60;99.90;;;;;;4990999;28;20437;-79
2022/05/24 11:03:01;;;;;;;0.93;0.90;;;16.70;99.90;;;;;;5003305;28;20093;-79
2022/05/24 11:05:34;;;;;;;0.63;0.50;;;16.90;99.90;;;;;;4988684;28;20030;-77
2022/05/24 11:08:18;;;;;;;1.40;1.30;;;17.00;99.90;;;;;;5010401;28;20030;-79
2022/05/24 11:10:47;;;;;;;0.60;0.60;;;17.10;99.90;;;;;;4981315;28;20025;-78
2022/05/24 11:13:42;;;;;;;0.82;0.82;;;17.30;99.90;;;;;;4973649;28;20064;-79
2022/05/24 11:16:13;;;;;;;0.70;0.50;;;17.30;99.90;;;;;;4972638;28;20038;-77
2022/05/24 11:18:41;;;;;;;0.88;0.77;;;17.40;99.90;;;;;;5008800;28;20035;-76
2022/05/24 11:21:15;;;;;;;0.73;0.65;;;17.50;99.90;;;;;;5004062;28;20030;-76
2022/05/24 11:23:51;;;;;;;1.45;0.60;;;17.40;99.90;;;;;;4995783;28;20034;-78
2022/05/24 11:26:24;;;;;;;0.60;0.60;;;17.40;99.90;;;;;;4997303;28;20065;-79
2022/05/24 11:29:14;;;;;;;0.68;0.55;;;17.30;99.90;;;;;;4987797;28;20091;-79
2022/05/24 11:31:46;;;;;;;0.57;0.57;;;17.30;99.90;;;;;;4982441;28;20025;-79
2022/05/24 11:34:31;;;;;;;0.85;0.85;;;17.40;99.90;;;;;;5006167;28;20045;-80
2022/05/24 11:37:20;;;;;;;1.05;0.85;;;17.50;99.90;;;;;;4995765;28;20046;-80
2022/05/24 11:39:46;;;;;;;0.70;0.70;;;17.70;99.90;;;;;;4992885;28;20152;-79
2022/05/24 11:42:45;;;;;;;1.27;0.80;;;17.80;99.90;;;;;;5019402;28;20129;-79
2022/05/24 11:45:29;;;;;;;0.50;0.50;;;18.00;99.90;;;;;;5008680;28;20373;-80
2022/05/24 11:48:00;;;;;;;1.75;0.55;;;18.10;99.90;;;;;;5017135;28;20030;-80
2022/05/24 11:50:31;;;;;;;0.55;0.55;;;18.00;99.90;;;;;;5010335;28;20030;-79
2022/05/24 11:53:09;;;;;;;0.40;0.40;;;18.00;99.90;;;;;;5000310;28;20030;-79
2022/05/24 11:55:40;;;;;;;5.43;0.80;;;18.00;99.90;;;;;;5012631;28;20057;-79
2022/05/24 11:58:20;;;;;;;1.42;0.40;;;17.80;99.90;;;;;;5015174;28;20040;-78
2022/05/24 12:01:14;;;;;;;0.85;0.60;;;17.80;99.90;;;;;;5013014;28;20021;-79
2022/05/24 12:10:00;;;;;;;0.75;0.50;;;17.70;99.90;;;;;;4991044;28;20029;-78
2022/05/24 12:12:36;;;;;;;0.52;0.52;;;17.80;99.90;;;;;;5001709;28;20026;-79
2022/05/24 12:15:46;;;;;;;3.35;0.65;;;18.00;99.90;;;;;;5008647;28;20054;-78
2022/05/24 12:18:24;;;;;;;0.80;0.50;;;18.20;99.90;;;;;;5011933;28;20026;-79
2022/05/24 12:20:49;;;;;;;1.38;0.60;;;18.30;99.90;;;;;;5008998;28;20034;-79
2022/05/24 12:23:30;;;;;;;0.32;0.32;;;18.30;99.90;;;;;;5017487;28;20742;-79
2022/05/24 12:25:58;;;;;;;0.40;0.40;;;18.40;99.90;;;;;;5003503;28;20676;-80
2022/05/24 12:28:51;;;;;;;0.55;0.55;;;18.50;99.90;;;;;;5000604;28;20030;-78
2022/05/24 12:31:28;;;;;;;1.85;0.60;;;18.50;99.90;;;;;;5008175;28;20045;-79
2022/05/24 12:33:54;;;;;;;0.40;0.40;;;18.80;99.90;;;;;;5020751;28;20034;-79
2022/05/24 12:36:40;;;;;;;0.55;0.45;;;19.00;99.90;;;;;;5000765;28;20106;-78
2022/05/24 12:39:12;;;;;;;;;;;19.10;99.90;;;;;;4994735;28;20051;-79
2022/05/24 12:41:37;;;;;;;1.17;0.80;;;19.20;99.90;;;;;;4980471;28;19916;-78
2022/05/24 12:44:21;;;;;;;0.30;0.30;;;19.20;99.90;;;;;;4985989;28;20034;-79
2022/05/24 12:47:11;;;;;;;0.43;0.40;;;19.40;99.90;;;;;;5014363;28;20029;-80
2022/05/24 12:49:53;;;;;;;0.60;0.40;;;19.60;99.90;;;;;;5010433;28;20053;-81
2022/05/24 12:52:20;;;;;;;0.40;0.40;;;19.90;99.90;;;;;;5002303;28;20083;-82
2022/05/24 12:54:51;;;;;;;2.25;0.63;;;20.30;99.90;;;;;;4998488;28;20256;-81
2022/05/24 12:57:19;;;;;;;0.88;0.40;;;20.40;99.90;;;;;;5004516;28;20036;-78
2022/05/24 12:59:55;;;;;;;1.00;0.40;;;20.70;99.90;;;;;;5011064;28;20503;-80
2022/05/24 13:02:34;;;;;;;0.30;0.28;;;21.00;99.90;;;;;;5014306;28;20033;-80
2022/05/24 13:05:20;;;;;;;0.30;0.30;;;21.10;99.90;;;;;;5003936;28;20032;-81
2022/05/24 13:07:54;;;;;;;0.90;0.50;;;21.10;99.90;;;;;;5020966;28;20034;-81
2022/05/24 13:10:23;;;;;;;2.97;0.32;;;21.10;99.90;;;;;;4978969;28;20057;-80
2022/05/24 13:13:10;;;;;;;1.02;0.40;;;20.90;99.90;;;;;;5003546;28;20496;-81
2022/05/24 13:16:06;;;;;;;0.38;0.38;;;20.80;99.90;;;;;;4998323;28;20050;-81
2022/05/24 13:18:34;;;;;;;8.27;0.52;;;20.50;99.90;;;;;;5002164;28;20099;-80
2022/05/24 13:21:06;;;;;;;0.35;0.25;;;20.30;99.90;;;;;;5015815;28;20602;-80
2022/05/24 13:23:42;;;;;;;1.40;0.20;;;20.10;99.90;;;;;;4981928;28;20038;-79
2022/05/24 13:26:10;;;;;;;0.70;0.40;;;20.00;99.90;;;;;;4994602;28;20428;-81
2022/05/24 13:28:59;;;;;;;0.28;0.28;;;19.90;99.90;;;;;;5018135;28;20041;-81
2022/05/24 13:34:26;;;;;;;0.47;0.38;;;19.60;99.90;;;;;;5008663;28;20033;-81
2022/05/24 13:37:06;;;;;;;5.50;0.40;;;19.50;99.90;;;;;;4997916;28;20040;-80
2022/05/24 13:39:44;;;;;;;0.20;0.20;;;19.40;99.90;;;;;;5014326;28;20048;-80
2022/05/24 13:42:26;;;;;;;0.77;0.20;;;19.30;99.90;;;;;;4986016;28;20072;-80
2022/05/24 13:45:26;;;;;;;0.40;0.40;;;19.20;99.90;;;;;;5011208;28;20040;-81
2022/05/24 13:48:01;;;;;;;0.32;0.30;;;19.10;99.90;;;;;;4939204;28;20057;-79
2022/05/24 13:50:29;;;;;;;0.20;0.20;;;19.00;99.90;;;;;;5013329;28;20495;-81
2022/05/24 13:53:00;;;;;;;0.30;0.30;;;18.80;99.90;;;;;;5001732;28;20041;-80
2022/05/24 13:56:00;;;;;;;0.40;0.40;;;18.80;99.90;;;;;;5002955;28;20048;-80